Time;durP1;ratioP1;P1;durP2;ratioP2;P2;SDS_P1;SDS_P2;PMS_P1;PMS_P2;Temp;Humidity;BMP_temperature;BMP_pressure;BME280_temperature;BME280_humidity;BME280_pressure;Samples;Min_cycle;Max_cycle;Signal;HPM_P1;HPM_P2
2023/02/15 00:01:51;;;;;;;56.90;24.00;;;1.60;99.90;;;;;;5095763;28;20274;-72
2023/02/15 00:04:19;;;;;;;58.25;26.08;;;1.60;99.90;;;;;;5091140;28;20286;-71
2023/02/15 00:06:45;;;;;;;78.18;28.02;;;1.60;99.90;;;;;;5076298;28;20481;-71
2023/02/15 00:09:11;;;;;;;98.53;26.80;;;1.70;99.90;;;;;;5074404;28;20040;-73
2023/02/15 00:11:39;;;;;;;83.75;27.25;;;1.60;99.90;;;;;;5075657;28;20060;-72
2023/02/15 00:14:20;;;;;;;63.28;26.17;;;1.70;99.90;;;;;;5075855;28;20385;-71
2023/02/15 00:16:46;;;;;;;63.20;26.02;;;1.60;99.90;;;;;;5075470;28;20540;-71
2023/02/15 00:19:14;;;;;;;77.65;26.17;;;1.70;99.90;;;;;;5074369;28;20112;-72
2023/02/15 00:21:40;;;;;;;72.10;28.77;;;1.70;99.90;;;;;;5074330;28;20097;-72
2023/02/15 00:24:08;;;;;;;52.78;23.83;;;1.70;99.90;;;;;;5073470;28;20024;-72
2023/02/15 00:26:34;;;;;;;62.85;25.95;;;1.80;99.90;;;;;;5075340;28;20028;-74
2023/02/15 00:29:01;;;;;;;61.78;26.60;;;2.10;99.90;;;;;;5075309;28;20078;-72
2023/02/15 00:31:31;;;;;;;69.82;26.05;;;2.10;99.90;;;;;;5073827;28;20028;-72
2023/02/15 00:34:05;;;;;;;63.33;26.05;;;2.10;99.90;;;;;;5073411;28;20050;-72
2023/02/15 00:36:31;;;;;;;74.68;27.30;;;2.00;99.90;;;;;;5074302;28;20115;-72
2023/02/15 00:38:57;;;;;;;70.30;27.77;;;1.90;99.90;;;;;;5074749;28;20031;-72
2023/02/15 00:41:23;;;;;;;87.47;28.20;;;1.80;99.90;;;;;;5073641;28;20025;-72
2023/02/15 00:43:48;;;;;;;63.72;28.10;;;1.80;99.90;;;;;;5073939;28;20282;-72
2023/02/15 00:46:14;;;;;;;84.93;27.77;;;1.90;99.90;;;;;;5074851;28;20020;-71
2023/02/15 00:48:39;;;;;;;100.60;28.10;;;1.90;99.90;;;;;;5073777;28;20024;-72
2023/02/15 00:51:05;;;;;;;119.80;28.57;;;1.90;99.90;;;;;;5074432;28;20024;-72
2023/02/15 00:53:31;;;;;;;95.63;28.77;;;1.70;99.90;;;;;;5074386;28;20036;-71
2023/02/15 00:55:57;;;;;;;78.95;27.65;;;1.60;99.90;;;;;;5073333;28;20020;-72
2023/02/15 00:58:23;;;;;;;;;;;1.60;99.90;;;;;;5074413;28;20043;-72
2023/02/15 01:00:49;;;;;;;64.80;26.85;;;1.50;99.90;;;;;;5074545;28;19904;-72
2023/02/15 01:03:16;;;;;;;66.07;28.75;;;1.70;99.90;;;;;;5073471;28;20021;-72
2023/02/15 01:05:42;;;;;;;75.75;29.20;;;1.70;99.90;;;;;;5088281;28;20476;-72
2023/02/15 01:08:08;;;;;;;86.10;27.37;;;1.80;99.90;;;;;;5092512;28;20035;-72
2023/02/15 01:10:34;;;;;;;73.57;26.75;;;1.80;99.90;;;;;;5094534;28;20034;-72
2023/02/15 01:13:00;;;;;;;73.35;27.35;;;1.90;99.90;;;;;;5094614;28;20028;-72
2023/02/15 01:23:01;;;;;;;71.13;26.02;;;2.00;99.90;;;;;;5076547;28;20024;-72
2023/02/15 01:25:26;;;;;;;67.57;28.17;;;2.20;99.90;;;;;;5076427;28;20036;-72
2023/02/15 01:27:52;;;;;;;66.30;27.70;;;2.10;99.90;;;;;;5075626;28;20025;-72
2023/02/15 01:30:17;;;;;;;66.70;25.73;;;2.10;99.90;;;;;;5072579;28;20020;-72
2023/02/15 01:32:43;;;;;;;68.90;25.67;;;2.10;99.90;;;;;;5077890;28;20024;-72
2023/02/15 01:35:10;;;;;;;61.97;25.87;;;2.00;99.90;;;;;;5079470;28;20040;-72
2023/02/15 01:37:36;;;;;;;72.85;25.27;;;2.00;99.90;;;;;;5098004;22;20040;-68
2023/02/15 01:40:05;;;;;;;64.25;25.38;;;2.00;99.90;;;;;;5052141;28;20051;-67
2023/02/15 01:42:30;;;;;;;86.55;25.92;;;1.90;99.90;;;;;;5053023;28;20036;-67
2023/02/15 01:44:58;;;;;;;60.13;25.10;;;1.90;99.90;;;;;;5052589;28;20024;-68
2023/02/15 01:47:41;;;;;;;57.00;24.48;;;1.90;99.90;;;;;;5051536;28;20358;-68
2023/02/15 01:50:22;;;;;;;51.80;22.65;;;2.00;99.90;;;;;;5053196;28;20100;-68
2023/02/15 01:52:57;;;;;;;58.20;25.92;;;1.90;99.90;;;;;;5052797;28;20025;-67
2023/02/15 01:55:28;;;;;;;54.80;22.10;;;1.90;99.90;;;;;;5052804;28;20029;-68
2023/02/15 01:57:54;;;;;;;61.20;22.98;;;1.90;99.90;;;;;;5052771;28;20032;-67
2023/02/15 02:00:21;;;;;;;69.55;22.45;;;2.00;99.90;;;;;;5051303;28;20017;-67
2023/02/15 02:03:25;;;;;;;61.05;23.20;;;1.90;99.90;;;;;;5051272;28;20452;-67
2023/02/15 02:05:51;;;;;;;56.60;23.05;;;1.80;99.90;;;;;;5036686;28;20036;-67
2023/02/15 02:08:17;;;;;;;52.00;23.65;;;1.80;99.90;;;;;;5058966;28;20465;-67
2023/02/15 02:10:43;;;;;;;54.70;22.10;;;1.80;99.90;;;;;;5088784;28;20031;-67
2023/02/15 02:13:08;;;;;;;68.13;24.53;;;1.80;99.90;;;;;;5073101;28;20469;-68
2023/02/15 02:15:56;;;;;;;61.93;25.57;;;1.70;99.90;;;;;;5071584;28;20025;-68
2023/02/15 02:18:52;;;;;;;57.35;22.42;;;1.70;99.90;;;;;;5072023;28;20127;-68
2023/02/15 02:22:12;;;;;;;48.55;22.67;;;1.70;99.90;;;;;;5076588;28;20467;-67
2023/02/15 02:25:05;;;;;;;50.28;21.08;;;1.70;99.90;;;;;;5014155;28;20026;-67
2023/02/15 02:27:47;;;;;;;50.97;22.45;;;1.80;99.90;;;;;;5074841;28;20474;-68
2023/02/15 02:30:34;;;;;;;53.13;23.15;;;1.80;99.90;;;;;;5074986;28;20028;-67
2023/02/15 02:33:29;;;;;;;47.15;21.90;;;1.80;99.90;;;;;;5074870;28;20024;-68
2023/02/15 02:36:22;;;;;;;50.05;23.70;;;1.80;99.90;;;;;;5075805;28;20484;-68
2023/02/15 02:39:06;;;;;;;49.90;21.85;;;1.80;99.90;;;;;;5076009;28;20029;-66
2023/02/15 02:41:34;;;;;;;49.88;21.30;;;1.80;99.90;;;;;;5074928;28;20056;-67
2023/02/15 02:44:39;;;;;;;53.55;21.85;;;1.80;99.90;;;;;;5074577;28;20107;-68
2023/02/15 02:47:30;;;;;;;75.15;21.20;;;1.90;99.90;;;;;;5014172;28;20151;-67
2023/02/15 02:50:01;;;;;;;47.25;21.42;;;1.90;99.90;;;;;;5013971;28;20034;-68
2023/02/15 02:52:48;;;;;;;42.55;20.92;;;1.80;99.90;;;;;;4997357;28;20022;-67
2023/02/15 02:55:19;;;;;;;51.72;21.70;;;1.90;99.90;;;;;;5013784;28;20558;-67
2023/02/15 02:57:59;;;;;;;49.05;20.60;;;1.90;99.90;;;;;;5013872;28;20029;-68
2023/02/15 03:00:27;;;;;;;45.97;20.80;;;1.80;99.90;;;;;;5014069;28;20022;-68
2023/02/15 03:02:59;;;;;;;49.35;19.88;;;1.80;99.90;;;;;;4997189;28;20078;-67
2023/02/15 03:05:28;;;;;;;49.78;20.92;;;1.80;99.90;;;;;;4997220;28;20022;-67
2023/02/15 03:07:56;;;;;;;65.05;20.85;;;1.70;99.90;;;;;;4996900;28;20536;-67
2023/02/15 03:10:24;;;;;;;53.13;21.73;;;1.70;99.90;;;;;;5013669;28;20494;-67
2023/02/15 03:12:50;;;;;;;49.70;21.80;;;1.60;99.90;;;;;;4997145;28;20097;-68
2023/02/15 03:15:20;;;;;;;53.90;23.13;;;1.60;99.90;;;;;;4997066;28;20026;-68
2023/02/15 03:17:51;;;;;;;53.33;22.70;;;1.60;99.90;;;;;;5013807;28;20470;-68
2023/02/15 03:20:29;;;;;;;54.70;22.60;;;1.60;99.90;;;;;;5013554;28;20030;-68
2023/02/15 03:22:59;;;;;;;71.28;23.92;;;1.60;99.90;;;;;;5039454;28;20037;-67
2023/02/15 03:25:34;;;;;;;53.55;24.10;;;1.50;99.90;;;;;;5054128;28;20021;-68
2023/02/15 03:28:05;;;;;;;60.30;26.08;;;1.50;99.90;;;;;;5055107;28;20017;-68
2023/02/15 03:30:32;;;;;;;69.85;26.88;;;1.50;99.90;;;;;;5054496;28;20060;-68
2023/02/15 03:32:59;;;;;;;62.72;25.45;;;1.60;99.90;;;;;;5055194;28;20028;-68
2023/02/15 03:35:32;;;;;;;63.40;23.02;;;1.50;99.90;;;;;;5055247;28;20481;-68
2023/02/15 03:38:01;;;;;;;53.55;22.83;;;1.60;99.90;;;;;;5058731;28;20039;-68
2023/02/15 03:43:58;;;;;;;55.30;23.50;;;1.60;99.90;;;;;;5076164;28;20098;-68
2023/02/15 03:46:29;;;;;;;58.20;22.73;;;1.60;99.90;;;;;;5073439;28;20480;-68
2023/02/15 03:49:23;;;;;;;54.60;23.70;;;1.70;99.90;;;;;;5075282;28;20020;-68
2023/02/15 03:51:53;;;;;;;48.67;21.92;;;1.60;99.90;;;;;;5066433;28;20059;-68
2023/02/15 03:55:03;;;;;;;61.40;21.85;;;1.60;99.90;;;;;;5074953;28;20024;-67
2023/02/15 04:02:58;;;;;;;53.88;21.02;;;1.70;99.90;;;;;;5075076;28;20494;-68
2023/02/15 04:05:24;;;;;;;53.20;21.73;;;1.70;99.90;;;;;;5074583;28;20115;-69
2023/02/15 04:07:50;;;;;;;57.77;21.97;;;1.70;99.90;;;;;;5075564;28;20052;-69
2023/02/15 04:12:59;;;;;;;61.58;23.48;;;1.60;99.90;;;;;;5076895;28;20047;-68
2023/02/15 04:18:09;;;;;;;55.35;21.83;;;1.50;99.90;;;;;;5076281;28;20036;-68
2023/02/15 04:26:04;;;;;;;56.90;20.88;;;1.40;99.90;;;;;;5074247;28;20412;-68
2023/02/15 04:28:30;;;;;;;51.80;21.55;;;1.40;99.90;;;;;;5073872;28;20017;-68
2023/02/15 04:30:55;;;;;;;54.60;21.00;;;1.40;99.90;;;;;;5072587;28;20370;-68
2023/02/15 04:33:21;;;;;;;50.00;21.40;;;1.40;99.90;;;;;;5072525;28;20259;-68
2023/02/15 04:35:46;;;;;;;50.37;21.13;;;1.40;99.90;;;;;;5073606;28;20036;-68
2023/02/15 04:38:12;;;;;;;54.13;22.73;;;1.40;99.90;;;;;;5073180;28;20582;-67
2023/02/15 04:40:37;;;;;;;59.90;22.80;;;1.40;99.90;;;;;;5073646;28;20465;-67
2023/02/15 04:43:03;;;;;;;50.87;22.00;;;1.40;99.90;;;;;;5073460;28;20067;-67
2023/02/15 04:45:29;;;;;;;50.30;21.23;;;1.50;99.90;;;;;;5072315;28;20024;-68
2023/02/15 04:47:54;;;;;;;46.10;22.57;;;1.50;99.90;;;;;;5074413;28;20023;-68
2023/02/15 04:50:20;;;;;;;52.30;22.23;;;1.50;99.90;;;;;;5074355;28;20350;-67
2023/02/15 04:52:46;;;;;;;53.63;22.43;;;1.40;99.90;;;;;;5074132;28;20083;-68
2023/02/15 04:55:11;;;;;;;44.10;21.23;;;1.40;99.90;;;;;;5073518;28;20021;-68
2023/02/15 04:57:37;;;;;;;47.70;21.93;;;1.40;99.90;;;;;;5072748;28;20098;-68
2023/02/15 05:00:03;;;;;;;51.53;22.87;;;1.50;99.90;;;;;;5072053;28;20047;-68
2023/02/15 05:02:28;;;;;;;46.33;22.10;;;1.40;99.90;;;;;;5072428;28;20405;-69
2023/02/15 05:04:54;;;;;;;49.53;20.63;;;1.40;99.90;;;;;;5073423;28;20025;-68
2023/02/15 05:07:20;;;;;;;52.83;21.60;;;1.60;99.90;;;;;;5073594;28;20032;-67
2023/02/15 05:09:45;;;;;;;49.10;22.45;;;1.50;99.90;;;;;;5054518;28;20021;-67
2023/02/15 05:12:11;;;;;;;44.97;19.50;;;1.40;99.90;;;;;;5051992;28;20082;-67
2023/02/15 05:14:36;;;;;;;48.07;21.80;;;1.40;99.90;;;;;;5053376;28;20112;-67
2023/02/15 05:17:03;;;;;;;45.93;21.00;;;1.80;99.90;;;;;;5052978;28;20033;-67
2023/02/15 05:19:29;;;;;;;41.85;19.73;;;2.00;99.90;;;;;;5051738;28;20061;-67
2023/02/15 05:21:54;;;;;;;42.35;20.63;;;1.80;99.90;;;;;;5053562;28;20053;-67
2023/02/15 05:29:48;;;;;;;40.42;18.85;;;2.00;99.90;;;;;;5059804;28;20055;-68
2023/02/15 05:32:14;;;;;;;44.80;22.03;;;2.00;99.90;;;;;;5063660;28;20024;-68
2023/02/15 05:34:40;;;;;;;41.23;20.00;;;1.80;99.90;;;;;;5052754;28;20021;-68
2023/02/15 05:37:07;;;;;;;43.63;21.20;;;1.80;99.90;;;;;;5055564;28;20033;-68
2023/02/15 05:39:33;;;;;;;40.70;19.98;;;1.90;99.90;;;;;;5071276;28;20029;-68
2023/02/15 05:41:59;;;;;;;42.60;21.10;;;1.90;99.90;;;;;;5071499;28;20082;-69
2023/02/15 05:44:25;;;;;;;37.30;18.88;;;2.00;99.90;;;;;;5073604;28;20035;-68
2023/02/15 05:46:50;;;;;;;48.33;24.03;;;2.20;99.90;;;;;;5072484;28;20447;-68
2023/02/15 05:49:16;;;;;;;46.27;22.83;;;2.20;99.90;;;;;;5072909;28;20434;-68
2023/02/15 05:51:42;;;;;;;39.23;19.57;;;2.20;99.90;;;;;;5073070;28;20479;-67
2023/02/15 05:54:07;;;;;;;59.53;22.20;;;2.00;99.90;;;;;;5075062;28;20501;-68
2023/02/15 05:56:33;;;;;;;53.77;22.93;;;1.90;99.90;;;;;;5077323;28;20388;-67
2023/02/15 05:58:58;;;;;;;48.13;22.90;;;1.60;99.90;;;;;;5075682;28;20035;-67
2023/02/15 06:01:24;;;;;;;51.07;21.00;;;1.80;99.90;;;;;;5070434;28;20419;-67
2023/02/15 06:03:50;;;;;;;44.23;20.27;;;2.00;99.90;;;;;;5071838;28;20098;-68
2023/02/15 06:06:16;;;;;;;43.63;20.05;;;1.90;99.90;;;;;;5075552;28;20031;-69
2023/02/15 06:08:41;;;;;;;49.17;22.38;;;1.90;99.90;;;;;;5076465;28;20037;-68
2023/02/15 06:11:07;;;;;;;47.00;22.80;;;1.70;99.90;;;;;;5076805;28;20436;-68
2023/02/15 06:13:34;;;;;;;43.30;19.10;;;1.80;99.90;;;;;;5075424;28;20062;-68
2023/02/15 06:15:59;;;;;;;44.85;21.27;;;1.60;99.90;;;;;;5067030;28;20108;-70
2023/02/15 06:18:25;;;;;;;38.07;18.53;;;1.50;99.90;;;;;;5054437;28;20134;-70
2023/02/15 06:20:52;;;;;;;40.30;19.33;;;1.50;99.90;;;;;;5055159;28;20033;-69
2023/02/15 06:23:17;;;;;;;41.22;18.65;;;1.40;99.90;;;;;;5055297;28;20128;-69
2023/02/15 06:25:45;;;;;;;40.70;18.93;;;1.50;99.90;;;;;;5056398;28;20025;-68
2023/02/15 06:28:10;;;;;;;34.03;16.23;;;1.60;99.90;;;;;;5057621;28;20097;-68
2023/02/15 06:30:36;;;;;;;37.67;16.43;;;1.60;99.90;;;;;;5057917;28;20385;-69
2023/02/15 06:33:01;;;;;;;34.30;16.07;;;1.60;99.90;;;;;;5055442;28;20052;-67
2023/02/15 06:35:27;;;;;;;38.27;16.47;;;1.60;99.90;;;;;;5056374;28;20091;-68
2023/02/15 06:37:52;;;;;;;33.67;16.07;;;1.60;99.90;;;;;;5059050;28;20127;-69
2023/02/15 06:40:18;;;;;;;34.60;16.57;;;1.70;99.90;;;;;;5075753;28;20017;-67
2023/02/15 06:42:44;;;;;;;38.20;16.67;;;1.70;99.90;;;;;;5070049;28;20482;-67
2023/02/15 06:45:10;;;;;;;34.97;14.82;;;1.80;99.90;;;;;;5054891;28;20539;-69
2023/02/15 06:47:36;;;;;;;32.03;15.10;;;1.60;99.90;;;;;;5056537;28;20029;-68
2023/02/15 06:50:03;;;;;;;36.53;15.93;;;1.40;99.90;;;;;;5054866;28;20470;-68
2023/02/15 06:52:29;;;;;;;35.95;16.48;;;1.60;99.90;;;;;;5054968;28;20183;-65
2023/02/15 06:54:54;;;;;;;34.57;14.73;;;1.60;99.90;;;;;;5054187;28;20053;-66
2023/02/15 06:57:20;;;;;;;43.00;17.40;;;1.70;99.90;;;;;;5055720;28;20033;-65
2023/02/15 06:59:46;;;;;;;35.45;16.70;;;1.60;99.90;;;;;;5054207;28;20040;-66
2023/02/15 07:02:12;;;;;;;37.13;16.00;;;1.50;99.90;;;;;;5055538;28;20033;-66
2023/02/15 07:04:38;;;;;;;39.28;16.42;;;1.60;99.90;;;;;;5054631;28;20055;-66
2023/02/15 07:07:07;;;;;;;36.03;16.17;;;1.60;99.90;;;;;;5055377;28;20375;-67
2023/02/15 07:09:32;;;;;;;39.42;16.77;;;1.60;99.90;;;;;;5072380;28;20027;-66
2023/02/15 07:14:42;;;;;;;35.92;16.60;;;1.80;99.90;;;;;;5075810;28;20095;-65
2023/02/15 07:17:08;;;;;;;38.60;17.10;;;1.70;99.90;;;;;;5074460;28;20025;-65
2023/02/15 07:19:33;;;;;;;39.27;18.57;;;1.70;99.90;;;;;;5075654;28;20396;-65
2023/02/15 07:21:59;;;;;;;43.83;18.27;;;1.70;99.90;;;;;;5074063;28;20120;-65
2023/02/15 07:24:24;;;;;;;39.13;18.30;;;1.70;99.90;;;;;;5075492;28;20055;-66
2023/02/15 07:26:50;;;;;;;47.37;18.93;;;1.70;99.90;;;;;;5074813;28;20435;-66
2023/02/15 07:29:15;;;;;;;54.60;18.17;;;1.50;99.90;;;;;;5075902;28;20050;-65
2023/02/15 07:31:43;;;;;;;40.87;17.67;;;1.40;99.90;;;;;;5073695;28;20218;-65
2023/02/15 07:34:08;;;;;;;45.42;18.05;;;1.40;99.90;;;;;;5075244;28;20107;-66
2023/02/15 07:36:34;;;;;;;45.83;20.40;;;1.40;99.90;;;;;;5074684;28;20489;-66
2023/02/15 07:38:59;;;;;;;45.07;18.67;;;1.40;99.90;;;;;;5074067;28;20448;-68
2023/02/15 07:41:25;;;;;;;46.23;19.17;;;1.60;99.90;;;;;;5054102;28;20025;-67
2023/02/15 07:43:51;;;;;;;47.87;20.27;;;1.70;99.90;;;;;;5054936;28;20028;-67
2023/02/15 07:46:17;;;;;;;50.43;19.00;;;1.90;99.90;;;;;;5075229;28;20471;-68
2023/02/15 07:48:44;;;;;;;45.53;18.13;;;1.90;99.90;;;;;;5074578;28;20016;-68
2023/02/15 07:51:11;;;;;;;42.85;18.83;;;1.90;99.90;;;;;;5074812;28;20021;-68
2023/02/15 07:53:37;;;;;;;43.55;18.58;;;1.90;99.90;;;;;;5074751;28;20049;-68
2023/02/15 07:56:11;;;;;;;43.65;18.75;;;1.90;99.90;;;;;;5073135;28;20036;-67
2023/02/15 07:58:52;;;;;;;44.78;19.13;;;1.90;99.90;;;;;;5074838;28;20038;-67
2023/02/15 08:01:30;;;;;;;46.78;18.77;;;1.90;99.90;;;;;;5074677;28;20047;-68
2023/02/15 08:03:56;;;;;;;41.25;16.77;;;1.80;99.90;;;;;;5074517;28;20027;-68
2023/02/15 08:06:24;;;;;;;38.35;17.65;;;1.80;99.90;;;;;;5074360;28;20016;-68
2023/02/15 08:08:50;;;;;;;39.60;16.73;;;1.60;99.90;;;;;;5073884;28;20047;-68
2023/02/15 08:11:35;;;;;;;41.43;18.60;;;1.50;99.90;;;;;;5074399;28;20358;-68
2023/02/15 08:14:08;;;;;;;40.00;15.73;;;1.40;99.90;;;;;;5073315;28;20024;-67
2023/02/15 08:16:42;;;;;;;38.60;15.30;;;1.40;99.90;;;;;;5089924;28;20033;-68
2023/02/15 08:19:29;;;;;;;41.53;16.77;;;1.40;99.90;;;;;;5074700;28;20360;-67
2023/02/15 08:21:56;;;;;;;38.67;17.10;;;1.30;99.90;;;;;;5074472;28;20032;-68
2023/02/15 08:24:24;;;;;;;45.63;19.38;;;1.20;99.90;;;;;;5073773;28;20021;-68
2023/02/15 08:26:51;;;;;;;43.00;17.08;;;1.20;99.90;;;;;;5072758;28;20087;-67
2023/02/15 08:29:19;;;;;;;42.75;17.73;;;1.30;99.90;;;;;;5073820;28;20025;-70
2023/02/15 08:31:45;;;;;;;44.55;17.17;;;1.40;99.90;;;;;;5072481;28;20025;-67
2023/02/15 08:34:14;;;;;;;41.05;16.95;;;1.50;99.90;;;;;;5073919;28;20416;-67
2023/02/15 08:36:41;;;;;;;36.20;16.52;;;1.50;99.90;;;;;;5074407;28;20036;-69
2023/02/15 08:39:07;;;;;;;46.88;16.10;;;1.50;99.90;;;;;;5075550;28;20119;-68
2023/02/15 08:41:37;;;;;;;38.47;16.23;;;1.50;99.90;;;;;;5075549;28;20052;-69
2023/02/15 08:44:05;;;;;;;40.22;17.45;;;1.50;99.90;;;;;;5074118;28;20503;-67
2023/02/15 08:46:33;;;;;;;41.97;17.05;;;1.40;99.90;;;;;;5072303;28;20121;-67
2023/02/15 08:49:01;;;;;;;38.13;15.25;;;1.60;99.90;;;;;;5072696;28;20043;-67
2023/02/15 08:51:32;;;;;;;35.25;16.20;;;1.70;99.90;;;;;;5071809;28;20024;-68
2023/02/15 08:54:00;;;;;;;37.05;16.88;;;1.90;99.90;;;;;;5056197;28;20497;-69
2023/02/15 08:56:28;;;;;;;37.63;16.30;;;2.20;99.90;;;;;;5071545;28;20028;-68
2023/02/15 08:58:55;;;;;;;38.25;16.58;;;2.30;99.90;;;;;;5070867;28;20064;-68
2023/02/15 09:01:23;;;;;;;42.58;17.33;;;2.30;99.90;;;;;;5074108;28;20515;-68
2023/02/15 09:03:54;;;;;;;37.95;17.20;;;2.30;99.90;;;;;;5075218;28;20103;-68
2023/02/15 09:06:21;;;;;;;39.95;17.98;;;2.30;99.90;;;;;;5074507;28;20031;-68
2023/02/15 09:08:48;;;;;;;39.90;17.95;;;2.30;99.90;;;;;;5073604;28;20017;-68
2023/02/15 09:11:24;;;;;;;39.63;17.75;;;2.30;99.90;;;;;;5089679;28;20485;-68
2023/02/15 09:13:59;;;;;;;38.03;16.80;;;2.30;99.90;;;;;;5075060;28;20492;-69
2023/02/15 09:16:28;;;;;;;41.80;18.60;;;2.30;99.90;;;;;;5074219;28;20061;-68
2023/02/15 09:18:54;;;;;;;38.78;17.83;;;2.30;99.90;;;;;;5073275;28;20035;-69
2023/02/15 09:21:25;;;;;;;38.90;17.50;;;2.20;99.90;;;;;;5071011;28;20136;-69
2023/02/15 09:23:55;;;;;;;39.78;18.58;;;2.30;99.90;;;;;;5073946;28;20032;-68
2023/02/15 09:26:22;;;;;;;51.70;22.25;;;2.40;99.90;;;;;;5074724;28;20044;-69
2023/02/15 09:28:52;;;;;;;45.38;19.67;;;2.40;99.90;;;;;;5080382;28;20021;-68
2023/02/15 09:31:20;;;;;;;41.45;18.48;;;2.50;99.90;;;;;;5073996;28;20388;-67
2023/02/15 09:33:49;;;;;;;43.30;19.27;;;2.50;99.90;;;;;;5073851;28;20066;-68
2023/02/15 09:36:33;;;;;;;41.10;19.13;;;2.40;99.90;;;;;;5073610;28;20473;-67
2023/02/15 09:39:09;;;;;;;40.97;18.90;;;2.40;99.90;;;;;;5072507;28;20041;-67
2023/02/15 09:42:03;;;;;;;53.00;23.37;;;2.40;99.90;;;;;;5073701;28;20393;-68
2023/02/15 09:44:49;;;;;;;40.35;18.65;;;2.50;99.90;;;;;;5072729;28;20469;-69
2023/02/15 09:47:34;;;;;;;39.60;18.33;;;2.80;99.90;;;;;;5074366;28;20032;-68
2023/02/15 09:50:34;;;;;;;63.88;27.70;;;2.90;99.90;;;;;;5089143;28;20104;-69
2023/02/15 09:53:51;;;;;;;66.35;29.10;;;2.90;99.90;;;;;;5073337;28;20028;-67
2023/02/15 09:56:30;;;;;;;40.53;18.25;;;2.80;99.90;;;;;;5011088;28;20167;-67
2023/02/15 09:59:15;;;;;;;44.78;17.63;;;3.10;99.90;;;;;;5011258;28;20061;-68
2023/02/15 10:01:59;;;;;;;42.42;19.05;;;3.20;99.90;;;;;;5012015;28;20101;-68
2023/02/15 10:04:31;;;;;;;44.58;19.70;;;3.10;99.90;;;;;;4993902;28;20053;-67
2023/02/15 10:07:19;;;;;;;41.80;18.73;;;2.90;99.90;;;;;;4995749;28;20022;-68
2023/02/15 10:10:03;;;;;;;43.67;19.48;;;2.90;99.90;;;;;;5004001;28;20057;-68
2023/02/15 10:12:46;;;;;;;40.60;19.25;;;3.00;99.90;;;;;;4991896;28;20041;-68
2023/02/15 10:15:33;;;;;;;50.17;20.75;;;3.00;99.90;;;;;;5010109;28;20446;-68
2023/02/15 10:18:17;;;;;;;49.27;23.00;;;3.00;99.90;;;;;;5010657;28;20491;-68
2023/02/15 10:21:18;;;;;;;50.20;22.08;;;2.70;99.90;;;;;;5010558;28;20527;-68
2023/02/15 10:23:50;;;;;;;48.97;21.77;;;2.60;99.90;;;;;;4994224;28;20125;-68
2023/02/15 10:26:22;;;;;;;49.92;21.83;;;2.70;99.90;;;;;;5010652;28;20038;-68
2023/02/15 10:28:51;;;;;;;45.67;21.48;;;2.70;99.90;;;;;;4994823;28;20490;-68
2023/02/15 10:31:43;;;;;;;46.22;21.02;;;2.90;99.90;;;;;;5050562;28;20037;-68
2023/02/15 10:34:22;;;;;;;43.05;19.27;;;3.00;99.90;;;;;;5070721;28;20020;-67
2023/02/15 10:37:11;;;;;;;47.25;20.05;;;3.10;99.90;;;;;;5072296;28;20090;-68
2023/02/15 10:39:40;;;;;;;50.35;21.80;;;3.10;99.90;;;;;;5072109;28;20031;-69
2023/02/15 10:42:20;;;;;;;44.22;20.58;;;3.10;99.90;;;;;;5076563;28;20116;-69
2023/02/15 10:44:49;;;;;;;39.88;19.30;;;3.30;99.90;;;;;;5075899;28;20548;-69
2023/02/15 10:47:55;;;;;;;45.35;20.88;;;2.90;99.90;;;;;;5076259;28;20115;-66
2023/02/15 10:50:49;;;;;;;48.60;20.85;;;2.70;99.90;;;;;;5076908;28;20021;-67
2023/02/15 10:53:38;;;;;;;40.05;18.33;;;2.70;99.90;;;;;;5075897;28;20135;-65
2023/02/15 10:56:24;;;;;;;42.10;19.80;;;2.90;99.90;;;;;;5076353;28;20043;-66
2023/02/15 10:59:08;;;;;;;45.20;20.35;;;3.00;99.90;;;;;;5075385;28;20067;-67
2023/02/15 11:01:53;;;;;;;36.40;18.38;;;3.10;99.90;;;;;;5075714;28;20027;-67
2023/02/15 11:04:44;;;;;;;39.28;18.65;;;3.10;99.90;;;;;;5075939;28;20540;-67
2023/02/15 11:07:19;;;;;;;38.75;19.13;;;3.30;99.90;;;;;;5075891;28;20035;-67
2023/02/15 11:09:49;;;;;;;43.33;19.80;;;3.10;99.90;;;;;;5090476;28;20039;-67
2023/02/15 11:12:20;;;;;;;40.05;19.00;;;3.10;99.90;;;;;;5075904;28;20499;-67
2023/02/15 11:15:12;;;;;;;39.40;18.77;;;3.40;99.90;;;;;;5074486;28;20059;-67
2023/02/15 11:17:43;;;;;;;40.28;18.60;;;3.60;99.90;;;;;;5075442;28;20028;-66
2023/02/15 11:20:11;;;;;;;39.22;17.80;;;3.60;99.90;;;;;;5076468;28;20032;-67
2023/02/15 11:22:38;;;;;;;37.35;18.02;;;3.40;99.90;;;;;;5074495;28;20054;-66
2023/02/15 11:25:14;;;;;;;;;;;3.50;99.90;;;;;;5076028;28;20032;-66
2023/02/15 11:27:45;;;;;;;44.28;19.38;;;3.30;99.90;;;;;;5075821;28;20418;-69
2023/02/15 11:30:15;;;;;;;42.70;19.50;;;3.20;99.90;;;;;;5076163;28;20116;-68
2023/02/15 11:32:46;;;;;;;40.78;18.83;;;3.20;99.90;;;;;;5076013;28;20032;-66
2023/02/15 11:35:14;;;;;;;41.70;19.48;;;3.40;99.90;;;;;;5075813;28;20411;-67
2023/02/15 11:37:48;;;;;;;41.97;19.67;;;3.20;99.90;;;;;;5075554;28;20032;-67
2023/02/15 11:40:23;;;;;;;40.05;18.98;;;3.20;99.90;;;;;;5075185;28;20469;-67
2023/02/15 11:42:51;;;;;;;41.42;19.15;;;3.30;99.90;;;;;;5074986;28;20025;-66
2023/02/15 11:45:23;;;;;;;38.65;19.70;;;3.50;99.90;;;;;;5073447;28;20024;-67
2023/02/15 11:47:49;;;;;;;36.78;18.20;;;3.70;99.90;;;;;;5073733;28;20033;-66
2023/02/15 11:50:21;;;;;;;35.60;17.33;;;3.80;99.90;;;;;;5073929;28;20028;-66
2023/02/15 11:52:47;;;;;;;32.90;16.55;;;4.00;99.90;;;;;;5073916;28;20385;-67
2023/02/15 11:55:17;;;;;;;38.63;18.80;;;4.00;99.90;;;;;;5074713;28;20038;-66
2023/02/15 11:57:46;;;;;;;35.50;16.92;;;4.10;99.90;;;;;;5074512;28;20035;-66
2023/02/15 12:00:26;;;;;;;36.88;17.67;;;4.20;99.90;;;;;;5068209;28;20048;-66
2023/02/15 12:02:54;;;;;;;37.63;18.45;;;4.30;99.90;;;;;;5058384;28;20041;-66
2023/02/15 12:05:24;;;;;;;35.70;17.52;;;4.40;99.90;;;;;;5075100;28;20024;-65
2023/02/15 12:08:00;;;;;;;31.38;16.52;;;4.50;99.90;;;;;;5067299;28;20092;-66
2023/02/15 12:10:31;;;;;;;38.95;18.10;;;4.50;99.90;;;;;;5074937;28;20397;-67
2023/02/15 12:13:15;;;;;;;35.72;18.10;;;4.20;99.90;;;;;;5075640;28;20461;-67
2023/02/15 12:16:05;;;;;;;38.20;18.45;;;4.30;99.90;;;;;;5069344;28;20488;-67
2023/02/15 12:18:44;;;;;;;33.22;17.40;;;4.60;99.90;;;;;;5060876;28;20448;-65
2023/02/15 12:21:23;;;;;;;36.53;17.67;;;4.60;99.90;;;;;;5069564;28;20373;-66
2023/02/15 12:23:52;;;;;;;31.02;17.65;;;4.90;99.90;;;;;;5074753;28;20094;-66
2023/02/15 12:26:25;;;;;;;33.95;17.70;;;4.90;99.90;;;;;;5074558;28;20024;-68
2023/02/15 12:28:54;;;;;;;35.60;18.10;;;5.00;99.90;;;;;;5072595;28;20044;-67
2023/02/15 12:31:24;;;;;;;29.90;16.60;;;4.90;99.90;;;;;;5073982;28;20044;-67
2023/02/15 12:33:57;;;;;;;37.03;17.75;;;4.70;99.90;;;;;;5074469;28;20024;-68
2023/02/15 12:36:44;;;;;;;33.42;17.98;;;4.50;99.90;;;;;;5072566;28;20025;-73
2023/02/15 12:39:14;;;;;;;35.90;18.00;;;4.40;99.90;;;;;;5051647;28;20107;-73
2023/02/15 12:41:59;;;;;;;32.70;16.48;;;4.30;99.90;;;;;;5062591;28;20469;-72
2023/02/15 12:44:28;;;;;;;36.60;18.42;;;4.50;99.90;;;;;;5072814;28;20037;-71
2023/02/15 12:47:18;;;;;;;32.42;17.45;;;4.30;99.90;;;;;;5072376;28;20047;-71
2023/02/15 12:50:03;;;;;;;29.45;16.63;;;4.30;99.90;;;;;;5074207;28;20108;-71
2023/02/15 12:52:28;;;;;;;35.33;17.67;;;4.40;99.90;;;;;;5072052;28;20036;-72
2023/02/15 12:54:54;;;;;;;34.57;17.43;;;4.40;99.90;;;;;;5072359;28;20043;-73
2023/02/15 12:57:31;;;;;;;33.47;18.23;;;4.40;99.90;;;;;;5073792;28;20505;-72
2023/02/15 13:00:06;;;;;;;38.67;18.88;;;4.60;99.90;;;;;;5067777;28;20051;-68
2023/02/15 13:02:40;;;;;;;37.80;18.75;;;4.80;99.90;;;;;;5074037;28;20036;-68
2023/02/15 13:05:37;;;;;;;33.08;17.42;;;4.90;99.90;;;;;;5066740;28;20109;-68
2023/02/15 13:08:13;;;;;;;32.92;18.52;;;5.10;99.90;;;;;;5070791;28;20346;-68
2023/02/15 13:10:59;;;;;;;33.15;17.70;;;5.00;99.90;;;;;;5073816;28;20053;-68
2023/02/15 13:13:29;;;;;;;33.83;17.15;;;4.90;99.90;;;;;;5071986;28;20029;-67
2023/02/15 13:15:59;;;;;;;34.00;17.73;;;4.90;99.90;;;;;;5070850;28;20048;-68
2023/02/15 13:18:33;;;;;;;35.10;18.55;;;4.90;99.90;;;;;;5071583;28;20029;-68
2023/02/15 13:21:11;;;;;;;32.63;16.67;;;4.90;99.90;;;;;;5068979;28;20025;-68
2023/02/15 13:23:38;;;;;;;40.22;19.80;;;5.20;99.90;;;;;;5071733;28;20121;-68
2023/02/15 13:26:10;;;;;;;33.22;17.05;;;5.30;99.90;;;;;;5067390;28;20017;-68
2023/02/15 13:28:46;;;;;;;33.47;17.70;;;5.30;99.90;;;;;;5071688;28;20024;-68
2023/02/15 13:31:18;;;;;;;33.50;17.73;;;5.20;99.90;;;;;;5073271;28;20482;-68
2023/02/15 13:33:56;;;;;;;106.25;20.88;;;5.30;99.90;;;;;;5073467;28;20034;-68
2023/02/15 13:36:41;;;;;;;32.83;17.33;;;5.40;99.90;;;;;;5071563;28;20040;-67
2023/02/15 13:39:28;;;;;;;31.60;17.10;;;5.50;99.90;;;;;;5073443;28;20040;-68